Time;durP1;ratioP1;P1;durP2;ratioP2;P2;SDS_P1;SDS_P2;PMS_P1;PMS_P2;Temp;Humidity;BMP_temperature;BMP_pressure;BME280_temperature;BME280_humidity;BME280_pressure;Samples;Min_cycle;Max_cycle;Signal;HPM_P1;HPM_P2
2023/06/11 00:02:08;;;;;;;7.83;6.17;;;;;;;;;;5056426;28;20523;-71
2023/06/11 00:04:35;;;;;;;7.80;6.73;;;;;;;;;;5057126;28;20489;-72
2023/06/11 00:07:02;;;;;;;8.77;7.30;;;;;;;;;;5057842;28;20427;-72
2023/06/11 00:09:28;;;;;;;7.43;6.83;;;;;;;;;;5057944;28;20411;-73
2023/06/11 00:11:54;;;;;;;8.33;7.57;;;;;;;;;;5057737;28;20408;-72
2023/06/11 00:14:22;;;;;;;7.87;7.10;;;;;;;;;;5057527;28;20419;-71
2023/06/11 00:16:48;;;;;;;7.30;6.60;;;;;;;;;;5057403;28;20466;-72
2023/06/11 00:19:14;;;;;;;8.37;6.60;;;;;;;;;;5057536;28;20466;-72
2023/06/11 00:21:43;;;;;;;7.77;7.10;;;;;;;;;;5057075;28;20412;-72
2023/06/11 00:24:11;;;;;;;6.97;6.27;;;;;;;;;;5057288;28;20438;-72
2023/06/11 00:26:38;;;;;;;7.27;6.57;;;;;;;;;;5057176;28;20411;-72
2023/06/11 00:29:05;;;;;;;7.83;7.03;;;;;;;;;;5057136;28;20794;-72
2023/06/11 00:31:31;;;;;;;8.00;6.50;;;;;;;;;;5057179;28;20499;-72
2023/06/11 00:33:57;;;;;;;8.23;7.43;;;;;;;;;;5057684;28;20753;-72
2023/06/11 00:36:26;;;;;;;9.30;7.37;;;;;;;;;;5056100;28;20486;-72
2023/06/11 00:38:52;;;;;;;7.23;6.53;;;;;;;;;;5057014;28;20416;-72
2023/06/11 00:41:18;;;;;;;8.47;7.47;;;;;;;;;;5057348;28;20404;-72
2023/06/11 00:43:44;;;;;;;8.07;7.27;;;;;;;;;;5057391;28;20411;-72
2023/06/11 00:46:10;;;;;;;8.10;7.27;;;;;;;;;;5057153;28;20776;-72
2023/06/11 00:48:40;;;;;;;7.40;6.70;;;;;;;;;;5057003;28;20403;-72
2023/06/11 00:51:06;;;;;;;7.47;6.77;;;;;;;;;;5057132;28;20754;-72
2023/06/11 00:53:33;;;;;;;8.37;7.00;;;;;;;;;;5056860;28;20900;-72
2023/06/11 00:55:59;;;;;;;8.03;7.23;;;;;;;;;;5057019;28;20452;-72
2023/06/11 00:58:27;;;;;;;8.40;7.60;;;;;;;;;;5057128;28;20426;-72
2023/06/11 01:00:56;;;;;;;8.17;6.80;;;;;;;;;;5056715;28;20815;-72
2023/06/11 01:03:26;;;;;;;7.50;6.80;;;;;;;;;;5052351;28;20424;-72
2023/06/11 01:06:01;;;;;;;7.00;6.40;;;;;;;;;;5056455;28;20465;-72
2023/06/11 01:08:27;;;;;;;9.90;6.93;;;;;;;;;;5035558;28;20892;-72
2023/06/11 01:10:53;;;;;;;7.77;7.03;;;;;;;;;;5036838;28;20413;-71
2023/06/11 01:13:20;;;;;;;7.23;6.63;;;;;;;;;;5036758;28;20409;-72
2023/06/11 01:15:46;;;;;;;8.30;7.00;;;;;;;;;;5036361;28;20460;-72
2023/06/11 01:18:19;;;;;;;7.47;6.63;;;;;;;;;;5037192;28;20413;-72
2023/06/11 01:20:50;;;;;;;7.60;6.90;;;;;;;;;;5036715;28;20444;-72
2023/06/11 01:23:21;;;;;;;7.00;6.40;;;;;;;;;;5044187;28;20569;-72
2023/06/11 01:26:06;;;;;;;8.37;6.07;;;;;;;;;;5056631;28;20408;-72
2023/06/11 01:28:33;;;;;;;8.47;7.70;;;;;;;;;;5056499;28;20447;-73
2023/06/11 01:31:01;;;;;;;8.83;7.13;;;;;;;;;;5056555;28;20789;-72
2023/06/11 01:33:27;;;;;;;7.77;6.93;;;;;;;;;;5056551;28;20463;-72
2023/06/11 01:35:57;;;;;;;8.70;6.63;;;;;;;;;;5056155;28;20832;-72
2023/06/11 01:38:25;;;;;;;7.60;6.77;;;;;;;;;;5056616;28;20408;-73
2023/06/11 01:40:51;;;;;;;8.23;7.23;;;;;;;;;;5056523;28;20459;-72
2023/06/11 01:43:17;;;;;;;8.00;7.20;;;;;;;;;;5056494;28;20404;-72
2023/06/11 01:45:43;;;;;;;8.40;6.63;;;;;;;;;;5056307;28;20410;-72
2023/06/11 01:48:09;;;;;;;7.33;6.63;;;;;;;;;;5056517;28;20447;-72
2023/06/11 01:50:36;;;;;;;7.67;6.90;;;;;;;;;;5056067;28;20408;-72
2023/06/11 01:53:02;;;;;;;9.33;6.67;;;;;;;;;;5056264;28;20399;-72
2023/06/11 01:55:28;;;;;;;7.07;6.43;;;;;;;;;;5055905;28;20462;-72
2023/06/11 01:57:54;;;;;;;9.63;6.97;;;;;;;;;;5055564;28;20479;-72
2023/06/11 02:00:20;;;;;;;8.43;7.17;;;;;;;;;;5055990;28;20428;-72
2023/06/11 02:02:48;;;;;;;7.83;6.77;;;;;;;;;;5055850;28;20940;-72
2023/06/11 02:05:14;;;;;;;8.83;6.83;;;;;;;;;;5056310;28;20423;-72
2023/06/11 02:07:40;;;;;;;7.27;6.67;;;;;;;;;;5055876;28;20415;-72
2023/06/11 02:10:07;;;;;;;6.83;6.20;;;;;;;;;;5055532;28;20415;-71
2023/06/11 02:12:33;;;;;;;6.80;5.77;;;;;;;;;;5055975;28;20522;-73
2023/06/11 02:14:59;;;;;;;7.20;6.43;;;;;;;;;;5035882;28;20413;-72
2023/06/11 02:17:25;;;;;;;7.13;6.43;;;;;;;;;;5034563;28;20964;-72
2023/06/11 02:19:51;;;;;;;8.33;7.33;;;;;;;;;;5035806;28;20431;-72
2023/06/11 02:22:17;;;;;;;6.80;6.10;;;;;;;;;;5036075;28;20397;-72
2023/06/11 02:24:43;;;;;;;9.77;6.80;;;;;;;;;;5035649;28;20758;-72
2023/06/11 02:27:09;;;;;;;7.33;6.60;;;;;;;;;;5036102;28;20432;-72
2023/06/11 02:29:35;;;;;;;7.30;6.60;;;;;;;;;;5039530;28;20428;-73
2023/06/11 02:32:01;;;;;;;7.33;6.63;;;;;;;;;;5055507;28;20474;-71
2023/06/11 02:34:27;;;;;;;7.93;6.80;;;;;;;;;;5056037;28;20914;-71
2023/06/11 02:36:53;;;;;;;8.83;7.67;;;;;;;;;;5056093;28;20550;-71
2023/06/11 02:39:19;;;;;;;9.70;7.10;;;;;;;;;;5056110;28;20443;-71
2023/06/11 02:41:45;;;;;;;7.20;6.60;;;;;;;;;;5055339;28;20470;-71
2023/06/11 02:44:11;;;;;;;7.60;6.90;;;;;;;;;;5055793;28;20435;-71
2023/06/11 02:46:37;;;;;;;7.77;7.07;;;;;;;;;;5055546;28;20880;-72
2023/06/11 02:49:03;;;;;;;7.63;7.03;;;;;;;;;;5055388;28;20412;-71
2023/06/11 02:51:29;;;;;;;7.87;7.17;;;;;;;;;;5055201;28;20408;-71
2023/06/11 02:53:55;;;;;;;8.90;6.73;;;;;;;;;;5055622;28;20613;-71
2023/06/11 02:56:21;;;;;;;7.73;7.13;;;;;;;;;;5055417;28;20451;-71
2023/06/11 02:58:49;;;;;;;8.07;6.90;;;;;;;;;;5055375;28;20461;-72
2023/06/11 03:01:15;;;;;;;7.90;7.10;;;;;;;;;;5055607;28;20431;-71
2023/06/11 03:03:41;;;;;;;8.17;7.37;;;;;;;;;;5055360;28;20586;-72
2023/06/11 03:06:07;;;;;;;7.20;6.60;;;;;;;;;;5055593;28;20449;-72
2023/06/11 03:08:33;;;;;;;8.10;7.30;;;;;;;;;;5055138;28;20411;-71
2023/06/11 03:10:59;;;;;;;7.60;6.80;;;;;;;;;;5054583;28;20767;-72
2023/06/11 03:13:25;;;;;;;10.57;8.00;;;;;;;;;;5055021;28;20822;-71
2023/06/11 03:15:51;;;;;;;7.77;7.07;;;;;;;;;;5054544;28;20459;-72
2023/06/11 03:18:17;;;;;;;7.50;6.80;;;;;;;;;;5055130;28;20506;-71
2023/06/11 03:20:43;;;;;;;7.90;7.20;;;;;;;;;;5055048;28;20435;-72
2023/06/11 03:23:10;;;;;;;8.10;7.30;;;;;;;;;;5055441;28;20809;-71
2023/06/11 03:25:36;;;;;;;9.80;6.73;;;;;;;;;;5054834;28;20412;-72
2023/06/11 03:28:03;;;;;;;7.20;6.60;;;;;;;;;;5055531;28;20499;-71
2023/06/11 03:30:29;;;;;;;7.83;7.03;;;;;;;;;;5055288;28;20416;-71
2023/06/11 03:32:55;;;;;;;8.37;7.57;;;;;;;;;;5068446;28;21036;-72
2023/06/11 03:35:21;;;;;;;8.70;7.80;;;;;;;;;;5079099;28;20468;-71
2023/06/11 03:37:48;;;;;;;8.70;7.67;;;;;;;;;;5077321;28;20922;-72
2023/06/11 03:40:14;;;;;;;9.33;6.83;;;;;;;;;;5078911;28;20429;-72
2023/06/11 03:42:40;;;;;;;9.93;8.93;;;;;;;;;;5079051;28;20435;-73
2023/06/11 03:45:06;;;;;;;8.20;7.40;;;;;;;;;;5079463;28;20839;-72
2023/06/11 03:47:32;;;;;;;7.07;6.40;;;;;;;;;;5078891;28;20918;-72
2023/06/11 03:49:58;;;;;;;7.80;7.10;;;;;;;;;;5078853;28;20786;-72
2023/06/11 03:52:24;;;;;;;9.60;7.73;;;;;;;;;;5078914;28;20442;-72
2023/06/11 03:54:50;;;;;;;12.57;8.43;;;;;;;;;;5078478;28;20411;-72
2023/06/11 03:57:18;;;;;;;11.60;7.53;;;;;;;;;;5078333;28;20461;-72
2023/06/11 03:59:44;;;;;;;8.00;7.20;;;;;;;;;;5077422;28;20411;-72
2023/06/11 04:02:10;;;;;;;7.60;6.90;;;;;;;;;;5059081;28;20412;-72
2023/06/11 04:04:36;;;;;;;8.47;7.57;;;;;;;;;;5058747;28;20904;-72
2023/06/11 04:07:03;;;;;;;7.67;7.07;;;;;;;;;;5058297;28;20408;-72
2023/06/11 04:09:29;;;;;;;7.87;7.10;;;;;;;;;;5058664;28;20458;-72
2023/06/11 04:11:55;;;;;;;8.53;7.50;;;;;;;;;;5058446;28;20419;-72
2023/06/11 04:14:21;;;;;;;8.13;7.33;;;;;;;;;;5058697;28;20407;-72
2023/06/11 04:16:47;;;;;;;9.67;7.03;;;;;;;;;;5058262;28;20455;-72
2023/06/11 04:19:13;;;;;;;8.57;7.77;;;;;;;;;;5058671;28;20412;-72
2023/06/11 04:21:39;;;;;;;7.80;7.13;;;;;;;;;;5075020;28;20407;-71
2023/06/11 04:24:05;;;;;;;12.50;8.33;;;;;;;;;;5078202;28;20411;-72
2023/06/11 04:26:31;;;;;;;8.70;7.90;;;;;;;;;;5078648;28;20415;-72
2023/06/11 04:28:58;;;;;;;8.07;7.30;;;;;;;;;;5078167;28;20522;-72
2023/06/11 04:31:27;;;;;;;9.03;8.07;;;;;;;;;;5078261;28;20455;-72
2023/06/11 04:33:56;;;;;;;7.77;7.17;;;;;;;;;;5078209;28;20452;-72
2023/06/11 04:36:24;;;;;;;9.00;8.00;;;;;;;;;;5078295;28;20466;-72
2023/06/11 04:38:51;;;;;;;8.17;7.33;;;;;;;;;;5078065;28;20452;-72
2023/06/11 04:41:17;;;;;;;10.10;7.47;;;;;;;;;;5078171;28;20765;-72
2023/06/11 04:43:46;;;;;;;7.00;6.47;;;;;;;;;;5077575;28;20398;-72
2023/06/11 04:46:12;;;;;;;8.33;7.50;;;;;;;;;;5078745;28;20410;-72
2023/06/11 04:48:38;;;;;;;8.30;7.50;;;;;;;;;;5077910;28;20506;-72
2023/06/11 04:51:04;;;;;;;8.90;7.27;;;;;;;;;;5077618;28;20411;-72
2023/06/11 04:53:31;;;;;;;9.37;7.43;;;;;;;;;;5078373;28;20489;-71
2023/06/11 04:55:58;;;;;;;8.10;7.17;;;;;;;;;;5077841;28;20450;-71
2023/06/11 04:58:27;;;;;;;7.83;7.13;;;;;;;;;;5078065;28;20820;-72
2023/06/11 05:00:57;;;;;;;8.40;7.70;;;;;;;;;;5065072;28;20484;-72
2023/06/11 05:03:24;;;;;;;8.47;7.57;;;;;;;;;;5048869;28;20452;-71
2023/06/11 05:05:51;;;;;;;8.40;7.70;;;;;;;;;;5037597;28;20440;-72
2023/06/11 05:08:28;;;;;;;8.13;7.33;;;;;;;;;;5042939;28;20473;-72
2023/06/11 05:10:54;;;;;;;8.43;7.63;;;;;;;;;;5056113;28;20400;-72
2023/06/11 05:13:26;;;;;;;7.63;6.87;;;;;;;;;;5056929;28;20415;-71
2023/06/11 05:15:52;;;;;;;7.83;7.13;;;;;;;;;;5056765;28;20456;-72
2023/06/11 05:18:18;;;;;;;8.07;7.00;;;;;;;;;;5057330;28;20520;-72
2023/06/11 05:20:45;;;;;;;8.70;7.80;;;;;;;;;;5057899;28;20419;-72
2023/06/11 05:23:11;;;;;;;9.47;7.60;;;;;;;;;;5057737;28;20420;-72
2023/06/11 05:25:46;;;;;;;8.00;7.30;;;;;;;;;;5057987;28;20415;-71
2023/06/11 05:28:12;;;;;;;10.30;7.87;;;;;;;;;;5057183;28;20930;-71
2023/06/11 05:30:38;;;;;;;7.73;7.07;;;;;;;;;;5057017;28;20506;-71
2023/06/11 05:33:05;;;;;;;8.23;7.53;;;;;;;;;;5057363;28;20467;-71
2023/06/11 05:35:31;;;;;;;8.70;7.80;;;;;;;;;;5057301;28;20400;-71
2023/06/11 05:37:57;;;;;;;8.80;7.43;;;;;;;;;;5057124;28;20578;-72
2023/06/11 05:40:23;;;;;;;8.57;7.67;;;;;;;;;;5057538;28;20495;-72
2023/06/11 05:42:50;;;;;;;8.23;7.53;;;;;;;;;;5057147;28;20774;-72
2023/06/11 05:45:16;;;;;;;8.40;7.60;;;;;;;;;;5056982;28;20408;-72
2023/06/11 05:47:42;;;;;;;9.67;7.97;;;;;;;;;;5057223;28;20822;-71
2023/06/11 05:50:08;;;;;;;9.03;7.47;;;;;;;;;;5056673;28;20412;-72
2023/06/11 05:52:34;;;;;;;7.90;7.20;;;;;;;;;;5056840;28;20408;-71
2023/06/11 05:55:00;;;;;;;7.93;7.23;;;;;;;;;;5055975;28;20407;-72
2023/06/11 05:57:26;;;;;;;7.87;7.17;;;;;;;;;;5056818;28;20467;-72
2023/06/11 05:59:52;;;;;;;7.53;6.83;;;;;;;;;;5055058;28;20916;-72
2023/06/11 06:02:19;;;;;;;8.10;7.33;;;;;;;;;;5050031;28;20527;-72
2023/06/11 06:04:47;;;;;;;8.10;7.50;;;;;;;;;;5041697;28;20420;-72
2023/06/11 06:07:13;;;;;;;11.00;7.83;;;;;;;;;;5036696;28;20409;-72
2023/06/11 06:09:39;;;;;;;9.03;7.67;;;;;;;;;;5036665;28;20424;-72
2023/06/11 06:12:06;;;;;;;8.53;7.57;;;;;;;;;;5051965;28;20747;-72
2023/06/11 06:14:32;;;;;;;7.70;6.70;;;;;;;;;;5055831;28;20757;-72
2023/06/11 06:16:58;;;;;;;7.30;6.60;;;;;;;;;;5055960;28;20483;-72
2023/06/11 06:19:24;;;;;;;7.23;6.53;;;;;;;;;;5056223;28;20481;-72
2023/06/11 06:21:50;;;;;;;10.80;7.50;;;;;;;;;;5055811;28;20400;-72
2023/06/11 06:24:16;;;;;;;9.30;7.40;;;;;;;;;;5055827;28;20408;-76
2023/06/11 06:26:43;;;;;;;8.70;6.97;;;;;;;;;;5055643;28;20412;-76
2023/06/11 06:29:09;;;;;;;7.60;6.90;;;;;;;;;;5055529;28;20834;-76
2023/06/11 06:31:36;;;;;;;7.93;6.93;;;;;;;;;;5055150;28;21008;-76
2023/06/11 06:34:03;;;;;;;7.70;6.90;;;;;;;;;;5055405;28;20451;-76
2023/06/11 06:36:29;;;;;;;7.70;6.50;;;;;;;;;;5055362;28;20483;-76
2023/06/11 06:38:55;;;;;;;8.73;6.87;;;;;;;;;;5055421;28;20780;-76
2023/06/11 06:41:21;;;;;;;10.60;7.00;;;;;;;;;;5055102;28;20899;-76
2023/06/11 06:43:47;;;;;;;7.87;6.90;;;;;;;;;;5055114;28;20888;-76
2023/06/11 06:46:13;;;;;;;10.13;6.43;;;;;;;;;;5055422;28;20418;-76
2023/06/11 06:48:40;;;;;;;7.77;6.97;;;;;;;;;;5055497;28;20404;-77
2023/06/11 06:51:06;;;;;;;6.00;5.50;;;;;;;;;;5054759;28;20419;-76
2023/06/11 06:53:32;;;;;;;7.20;6.17;;;;;;;;;;5055314;28;20404;-76
2023/06/11 06:56:00;;;;;;;6.80;6.20;;;;;;;;;;5055074;28;20956;-76
2023/06/11 06:58:26;;;;;;;7.57;6.60;;;;;;;;;;5055580;28;20917;-76
2023/06/11 07:00:52;;;;;;;9.37;6.97;;;;;;;;;;5054964;28;20423;-77
2023/06/11 07:03:18;;;;;;;6.90;6.20;;;;;;;;;;5055525;28;20411;-76
2023/06/11 07:05:44;;;;;;;7.43;6.83;;;;;;;;;;5054582;28;20405;-76
2023/06/11 07:08:12;;;;;;;6.83;6.33;;;;;;;;;;5054710;28;20407;-77
2023/06/11 07:10:38;;;;;;;6.37;5.77;;;;;;;;;;5055053;28;20477;-77
2023/06/11 07:13:05;;;;;;;7.30;6.60;;;;;;;;;;5055613;28;20439;-76
2023/06/11 07:15:31;;;;;;;6.80;5.53;;;;;;;;;;5054915;28;20420;-77
2023/06/11 07:17:57;;;;;;;7.27;6.63;;;;;;;;;;5054959;28;20491;-77
2023/06/11 07:20:23;;;;;;;6.57;5.97;;;;;;;;;;5055574;28;20408;-77
2023/06/11 07:22:49;;;;;;;7.93;7.23;;;;;;;;;;5054570;28;20420;-76
2023/06/11 07:25:16;;;;;;;6.67;6.13;;;;;;;;;;5054485;28;20518;-76
2023/06/11 07:27:42;;;;;;;7.17;6.47;;;;;;;;;;5055101;28;20416;-77
2023/06/11 07:30:09;;;;;;;7.20;6.60;;;;;;;;;;5054240;28;20887;-76
2023/06/11 07:32:36;;;;;;;7.33;6.23;;;;;;;;;;5054521;28;20566;-76
2023/06/11 07:35:02;;;;;;;7.77;7.10;;;;;;;;;;5054218;28;20908;-77
2023/06/11 07:37:28;;;;;;;7.37;6.60;;;;;;;;;;5054760;28;20487;-77
2023/06/11 07:39:54;;;;;;;6.23;5.73;;;;;;;;;;5054766;28;20412;-77
2023/06/11 07:42:20;;;;;;;7.00;6.40;;;;;;;;;;5054483;28;20416;-74
2023/06/11 07:44:46;;;;;;;6.97;6.37;;;;;;;;;;5054829;28;20415;-72
2023/06/11 07:47:12;;;;;;;6.80;6.20;;;;;;;;;;5054532;28;20470;-72
2023/06/11 07:49:38;;;;;;;6.17;5.77;;;;;;;;;;5055139;28;20782;-72
2023/06/11 07:52:04;;;;;;;6.83;6.23;;;;;;;;;;5054600;28;20500;-72
2023/06/11 07:54:31;;;;;;;9.90;6.33;;;;;;;;;;5054792;28;20416;-72
2023/06/11 07:56:57;;;;;;;8.30;6.83;;;;;;;;;;5054515;28;20471;-72
2023/06/11 07:59:23;;;;;;;6.97;6.30;;;;;;;;;;5055450;28;20769;-72
2023/06/11 08:01:49;;;;;;;7.37;6.20;;;;;;;;;;5054987;28;20508;-72
2023/06/11 08:04:15;;;;;;;6.50;5.90;;;;;;;;;;5054893;28;20443;-72
2023/06/11 08:06:43;;;;;;;9.13;6.00;;;;;;;;;;5054977;28;20407;-72
2023/06/11 08:09:09;;;;;;;6.53;5.83;;;;;;;;;;5054152;28;20420;-72
2023/06/11 08:11:37;;;;;;;6.77;5.80;;;;;;;;;;5050882;28;20435;-72
2023/06/11 08:14:03;;;;;;;6.27;5.77;;;;;;;;;;5035355;28;20413;-72
2023/06/11 08:16:29;;;;;;;5.83;5.33;;;;;;;;;;5047272;28;20833;-72
2023/06/11 08:18:57;;;;;;;6.13;5.00;;;;;;;;;;5039573;28;20428;-71
2023/06/11 08:21:23;;;;;;;5.57;5.03;;;;;;;;;;5055035;28;20515;-71
2023/06/11 08:23:50;;;;;;;7.77;5.73;;;;;;;;;;5058088;28;20443;-72
2023/06/11 08:26:16;;;;;;;5.30;4.90;;;;;;;;;;5058207;28;20855;-72
2023/06/11 08:28:42;;;;;;;5.43;4.83;;;;;;;;;;5058350;28;20435;-72
2023/06/11 08:31:08;;;;;;;6.80;4.67;;;;;;;;;;5057311;28;20415;-72
2023/06/11 08:33:34;;;;;;;5.40;4.90;;;;;;;;;;5057683;28;20475;-72
2023/06/11 08:36:00;;;;;;;5.30;4.80;;;;;;;;;;5057586;28;20569;-72
2023/06/11 08:38:28;;;;;;;5.30;4.80;;;;;;;;;;5057367;28;20463;-72
2023/06/11 08:40:54;;;;;;;6.13;5.33;;;;;;;;;;5057898;28;20470;-72
2023/06/11 08:43:20;;;;;;;8.50;5.50;;;;;;;;;;5057244;28;20434;-72
2023/06/11 08:45:46;;;;;;;4.60;4.20;;;;;;;;;;5057788;28;20400;-72
2023/06/11 08:48:14;;;;;;;6.53;4.80;;;;;;;;;;5056995;28;20416;-73
2023/06/11 08:50:40;;;;;;;4.40;4.10;;;;;;;;;;5057514;28;20417;-73
2023/06/11 08:53:07;;;;;;;5.67;4.80;;;;;;;;;;5056867;28;20416;-73
2023/06/11 08:55:33;;;;;;;6.07;4.30;;;;;;;;;;5056808;28;20767;-73
2023/06/11 08:58:00;;;;;;;4.67;4.27;;;;;;;;;;5056285;28;20419;-74
2023/06/11 09:00:27;;;;;;;4.73;4.33;;;;;;;;;;5056421;28;20911;-73
2023/06/11 09:02:53;;;;;;;4.70;4.30;;;;;;;;;;5056105;28;20510;-72
2023/06/11 09:05:19;;;;;;;4.80;4.23;;;;;;;;;;5056042;28;20830;-73
2023/06/11 09:07:49;;;;;;;6.13;4.50;;;;;;;;;;5056239;28;20451;-73
2023/06/11 09:10:15;;;;;;;4.37;4.07;;;;;;;;;;5055875;28;20766;-73
2023/06/11 09:12:41;;;;;;;7.17;4.30;;;;;;;;;;5056162;28;20409;-73
2023/06/11 09:15:07;;;;;;;6.30;4.13;;;;;;;;;;5056295;28;20411;-73
2023/06/11 09:17:34;;;;;;;4.40;4.10;;;;;;;;;;5055926;28;20463;-73
2023/06/11 09:20:02;;;;;;;5.30;4.77;;;;;;;;;;5055779;28;20507;-73
2023/06/11 09:22:28;;;;;;;4.10;3.60;;;;;;;;;;5055814;28;20436;-73
2023/06/11 09:24:55;;;;;;;4.37;3.97;;;;;;;;;;5056084;28;20400;-73
2023/06/11 09:27:21;;;;;;;5.20;4.30;;;;;;;;;;5055681;28;20423;-73
2023/06/11 09:29:47;;;;;;;4.70;3.90;;;;;;;;;;5054503;28;20455;-73
2023/06/11 09:32:14;;;;;;;4.70;4.20;;;;;;;;;;5055145;28;20464;-73
2023/06/11 09:34:44;;;;;;;5.57;4.20;;;;;;;;;;5055079;28;20469;-73
2023/06/11 09:37:11;;;;;;;4.47;3.40;;;;;;;;;;5055707;28;20578;-73
2023/06/11 09:39:41;;;;;;;3.63;3.33;;;;;;;;;;5055497;28;20412;-71
2023/06/11 09:42:11;;;;;;;4.60;4.30;;;;;;;;;;5054771;28;20466;-72
2023/06/11 09:44:37;;;;;;;4.90;3.97;;;;;;;;;;5054855;28;20403;-72
2023/06/11 09:47:03;;;;;;;4.33;3.93;;;;;;;;;;5054416;28;20473;-72
2023/06/11 09:49:31;;;;;;;4.20;3.90;;;;;;;;;;5054974;28;20797;-72
2023/06/11 09:51:57;;;;;;;4.40;4.00;;;;;;;;;;5054934;28;20404;-72
2023/06/11 09:54:25;;;;;;;4.47;4.07;;;;;;;;;;5054267;28;20527;-72
2023/06/11 09:56:51;;;;;;;5.20;4.13;;;;;;;;;;5047915;28;20506;-72
2023/06/11 09:59:18;;;;;;;4.73;3.93;;;;;;;;;;5051234;28;20443;-72
2023/06/11 10:01:47;;;;;;;4.27;3.97;;;;;;;;;;5054312;28;20432;-72
2023/06/11 10:04:13;;;;;;;5.57;3.77;;;;;;;;;;5053850;28;20400;-72
2023/06/11 10:06:45;;;;;;;3.70;3.40;;;;;;;;;;5054412;28;20415;-72
2023/06/11 10:09:13;;;;;;;3.77;3.47;;;;;;;;;;5053973;28;20474;-72
2023/06/11 10:11:40;;;;;;;4.57;4.13;;;;;;;;;;5054632;28;20401;-72
2023/06/11 10:14:11;;;;;;;5.40;4.20;;;;;;;;;;5054056;28;20746;-73
2023/06/11 10:16:37;;;;;;;4.47;4.07;;;;;;;;;;5054470;28;20529;-72
2023/06/11 10:19:10;;;;;;;4.30;3.83;;;;;;;;;;5054011;28;20396;-74
2023/06/11 10:21:51;;;;;;;4.07;3.67;;;;;;;;;;5053910;28;20924;-72
2023/06/11 10:24:21;;;;;;;3.93;3.63;;;;;;;;;;5053727;28;20408;-72
2023/06/11 10:27:02;;;;;;;4.40;4.00;;;;;;;;;;5050690;28;20441;-72
2023/06/11 10:29:28;;;;;;;7.87;3.77;;;;;;;;;;5034396;28;20405;-72
2023/06/11 10:31:59;;;;;;;5.00;4.20;;;;;;;;;;5047612;28;20851;-73
2023/06/11 10:34:25;;;;;;;5.20;4.57;;;;;;;;;;5053442;28;20408;-72
2023/06/11 10:36:51;;;;;;;4.67;4.13;;;;;;;;;;5053856;28;20464;-73
2023/06/11 10:39:22;;;;;;;4.07;3.67;;;;;;;;;;5053583;28;20415;-73
2023/06/11 10:41:58;;;;;;;4.53;4.07;;;;;;;;;;5053712;28;20463;-73
2023/06/11 10:44:24;;;;;;;4.93;4.53;;;;;;;;;;5053354;28;20419;-73
2023/06/11 10:46:54;;;;;;;6.27;4.57;;;;;;;;;;5053663;28;20809;-73
2023/06/11 10:49:23;;;;;;;4.43;4.13;;;;;;;;;;5053357;28;20439;-73
2023/06/11 10:51:50;;;;;;;5.70;4.53;;;;;;;;;;5053438;28;20891;-73
2023/06/11 10:54:26;;;;;;;4.33;3.93;;;;;;;;;;5053084;28;20923;-73
2023/06/11 10:56:52;;;;;;;4.40;4.00;;;;;;;;;;5053255;28;20459;-73
2023/06/11 10:59:18;;;;;;;7.00;3.67;;;;;;;;;;5053181;28;20408;-73
2023/06/11 11:01:45;;;;;;;5.47;4.90;;;;;;;;;;5053481;28;20412;-73
2023/06/11 11:04:11;;;;;;;4.43;4.10;;;;;;;;;;5052847;28;20495;-73
2023/06/11 11:06:39;;;;;;;4.53;4.23;;;;;;;;;;5053348;28;20443;-73
2023/06/11 11:09:05;;;;;;;4.33;4.03;;;;;;;;;;5053369;28;20438;-73
2023/06/11 11:11:31;;;;;;;5.00;4.60;;;;;;;;;;5053288;28;20819;-73
2023/06/11 11:14:00;;;;;;;4.33;4.03;;;;;;;;;;5052989;28;20415;-73
2023/06/11 11:16:26;;;;;;;4.50;4.20;;;;;;;;;;5052699;28;20561;-73
2023/06/11 11:18:52;;;;;;;4.80;4.30;;;;;;;;;;5052854;28;20782;-73
2023/06/11 11:21:19;;;;;;;6.70;4.47;;;;;;;;;;5052798;28;20397;-74
2023/06/11 11:23:48;;;;;;;4.73;4.40;;;;;;;;;;5053166;28;20399;-73
2023/06/11 11:26:15;;;;;;;5.10;4.50;;;;;;;;;;5052635;28;20884;-73
2023/06/11 11:28:41;;;;;;;5.47;4.37;;;;;;;;;;5052873;28;20412;-72
2023/06/11 11:31:07;;;;;;;4.63;4.03;;;;;;;;;;5052362;28;20396;-75
2023/06/11 11:33:37;;;;;;;4.67;4.30;;;;;;;;;;5053066;28;20457;-73
2023/06/11 11:36:04;;;;;;;4.53;4.10;;;;;;;;;;5052921;28;20562;-73
2023/06/11 11:38:37;;;;;;;4.73;4.43;;;;;;;;;;5052769;28;20511;-73
2023/06/11 11:41:07;;;;;;;4.00;3.70;;;;;;;;;;5053063;28;20941;-73
2023/06/11 11:43:37;;;;;;;4.37;4.07;;;;;;;;;;5052716;28;20439;-73
2023/06/11 11:46:13;;;;;;;4.50;4.20;;;;;;;;;;5052510;28;20423;-73
2023/06/11 11:48:42;;;;;;;4.67;4.27;;;;;;;;;;5053169;28;20423;-73
2023/06/11 11:51:08;;;;;;;5.23;4.37;;;;;;;;;;5052676;28;20493;-73
2023/06/11 11:53:34;;;;;;;5.43;4.03;;;;;;;;;;5055434;28;20908;-73
2023/06/11 11:56:00;;;;;;;5.23;4.47;;;;;;;;;;5056479;28;20467;-73
2023/06/11 11:58:26;;;;;;;4.90;4.13;;;;;;;;;;5056375;28;20787;-74
2023/06/11 12:00:53;;;;;;;6.53;4.40;;;;;;;;;;5056427;28;20392;-73
2023/06/11 12:03:23;;;;;;;4.50;4.17;;;;;;;;;;5056308;28;20412;-73
2023/06/11 12:05:59;;;;;;;5.80;4.30;;;;;;;;;;5056404;28;20909;-73
2023/06/11 12:08:26;;;;;;;4.80;4.03;;;;;;;;;;5056217;28;20402;-74
2023/06/11 12:10:52;;;;;;;4.57;4.27;;;;;;;;;;5056176;28;20395;-74
2023/06/11 12:13:18;;;;;;;6.30;4.70;;;;;;;;;;5056257;28;20501;-74
2023/06/11 12:15:44;;;;;;;5.60;4.90;;;;;;;;;;5056479;28;20407;-73
2023/06/11 12:18:10;;;;;;;6.90;4.57;;;;;;;;;;5056131;28;20415;-75
2023/06/11 12:20:36;;;;;;;4.97;4.57;;;;;;;;;;5056151;28;20427;-73
2023/06/11 12:23:03;;;;;;;6.03;4.63;;;;;;;;;;5056004;28;20953;-74
2023/06/11 12:25:32;;;;;;;5.30;4.17;;;;;;;;;;5055777;28;20772;-74
2023/06/11 12:27:59;;;;;;;5.00;4.60;;;;;;;;;;5056202;28;20412;-74
2023/06/11 12:30:25;;;;;;;5.00;4.60;;;;;;;;;;5055935;28;20487;-73
2023/06/11 12:32:52;;;;;;;4.80;4.40;;;;;;;;;;5055725;28;20460;-73
2023/06/11 12:35:18;;;;;;;5.27;4.47;;;;;;;;;;5055417;28;20447;-73
2023/06/11 12:37:45;;;;;;;4.97;4.50;;;;;;;;;;5055682;28;20447;-73
2023/06/11 12:40:15;;;;;;;5.50;5.00;;;;;;;;;;5055448;28;20412;-76
2023/06/11 12:42:41;;;;;;;5.20;4.10;;;;;;;;;;5055980;28;20406;-73
2023/06/11 12:45:07;;;;;;;5.90;4.33;;;;;;;;;;5054493;28;20916;-73
2023/06/11 12:47:33;;;;;;;5.33;4.23;;;;;;;;;;5055601;28;20457;-73
2023/06/11 12:50:00;;;;;;;4.87;4.37;;;;;;;;;;5055579;28;20403;-73
2023/06/11 12:52:26;;;;;;;6.63;4.27;;;;;;;;;;5055237;28;20401;-74
2023/06/11 12:54:52;;;;;;;4.10;3.80;;;;;;;;;;5055696;28;20396;-74
2023/06/11 12:57:18;;;;;;;4.87;4.47;;;;;;;;;;5055288;28;20470;-74
2023/06/11 12:59:44;;;;;;;5.83;4.50;;;;;;;;;;5055830;28;20420;-74
2023/06/11 13:02:11;;;;;;;5.17;4.57;;;;;;;;;;5055324;28;20903;-74
2023/06/11 13:04:37;;;;;;;6.70;4.97;;;;;;;;;;5054889;28;20412;-73
2023/06/11 13:07:03;;;;;;;5.23;4.60;;;;;;;;;;5055219;28;20400;-73
2023/06/11 13:09:29;;;;;;;5.60;5.17;;;;;;;;;;5055049;28;20518;-74
2023/06/11 13:11:55;;;;;;;5.87;4.63;;;;;;;;;;5055241;28;20443;-73
2023/06/11 13:14:21;;;;;;;6.00;4.43;;;;;;;;;;5054979;28;20396;-74
2023/06/11 13:16:51;;;;;;;5.60;5.00;;;;;;;;;;5055130;28;20452;-74
2023/06/11 13:19:17;;;;;;;5.93;4.73;;;;;;;;;;5054803;28;20474;-74
2023/06/11 13:21:43;;;;;;;6.53;5.07;;;;;;;;;;5053714;28;20460;-74
2023/06/11 13:24:09;;;;;;;5.17;4.63;;;;;;;;;;5054990;28;20884;-73
2023/06/11 13:26:35;;;;;;;5.23;4.57;;;;;;;;;;5054702;28;20499;-74
2023/06/11 13:29:01;;;;;;;5.63;4.47;;;;;;;;;;5054821;28;20404;-74
2023/06/11 13:31:27;;;;;;;5.50;5.00;;;;;;;;;;5040306;28;20472;-74
2023/06/11 13:33:53;;;;;;;4.47;4.07;;;;;;;;;;5044176;28;20471;-74
2023/06/11 13:36:19;;;;;;;6.13;4.23;;;;;;;;;;5034442;28;20465;-74
2023/06/11 13:38:45;;;;;;;5.07;4.67;;;;;;;;;;5034985;28;20539;-74
2023/06/11 13:41:11;;;;;;;5.20;4.80;;;;;;;;;;5034945;28;20474;-74
2023/06/11 13:43:37;;;;;;;5.27;4.53;;;;;;;;;;5034344;28;20948;-74
2023/06/11 13:46:04;;;;;;;5.30;4.37;;;;;;;;;;5034764;28;20459;-74
2023/06/11 13:48:30;;;;;;;5.27;4.87;;;;;;;;;;5034639;28;20451;-74
2023/06/11 13:50:56;;;;;;;4.37;3.97;;;;;;;;;;5034664;28;20916;-74
2023/06/11 13:53:23;;;;;;;5.30;4.80;;;;;;;;;;5035757;28;20848;-74
2023/06/11 13:55:49;;;;;;;5.27;4.70;;;;;;;;;;5054287;28;20440;-74
2023/06/11 13:58:16;;;;;;;4.67;4.37;;;;;;;;;;5054336;28;20432;-74
2023/06/11 14:00:42;;;;;;;5.40;4.63;;;;;;;;;;5054286;28;20428;-74
2023/06/11 14:03:09;;;;;;;4.60;4.20;;;;;;;;;;5054024;28;20465;-74
2023/06/11 14:05:35;;;;;;;4.03;3.63;;;;;;;;;;5054254;28;20439;-74
2023/06/11 14:08:02;;;;;;;4.57;4.10;;;;;;;;;;5054130;28;20412;-74
2023/06/11 14:10:28;;;;;;;4.27;3.97;;;;;;;;;;5054024;28;20412;-74
2023/06/11 14:12:54;;;;;;;6.07;4.20;;;;;;;;;;5054531;28;20408;-74
2023/06/11 14:15:20;;;;;;;6.90;4.53;;;;;;;;;;5053244;28;20896;-73
2023/06/11 14:17:47;;;;;;;5.97;5.00;;;;;;;;;;5053809;28;20542;-74
2023/06/11 14:20:14;;;;;;;4.70;4.40;;;;;;;;;;5054111;28;20465;-74
2023/06/11 14:22:40;;;;;;;6.23;3.90;;;;;;;;;;5053724;28;20411;-74
2023/06/11 14:25:07;;;;;;;7.03;4.70;;;;;;;;;;5053808;28;20404;-74
2023/06/11 14:27:34;;;;;;;5.80;4.57;;;;;;;;;;5053498;28;20926;-74
2023/06/11 14:30:00;;;;;;;4.33;4.00;;;;;;;;;;5053597;28;20907;-74
2023/06/11 14:32:31;;;;;;;7.60;4.30;;;;;;;;;;5053309;28;20518;-74
2023/06/11 14:34:57;;;;;;;6.07;5.00;;;;;;;;;;5053628;28;20420;-74
2023/06/11 14:37:23;;;;;;;5.10;4.23;;;;;;;;;;5053145;28;20466;-74
2023/06/11 14:39:49;;;;;;;4.70;4.30;;;;;;;;;;5053542;28;20424;-74
2023/06/11 14:42:15;;;;;;;5.00;4.30;;;;;;;;;;5053439;28;20407;-73